sensor_id;sensor_type;location;lat;lon;timestamp;temperature;humidity
63899;HTU21D;50070;-32.946;-60.652;2022-12-24T00:00:08;24.38;76.20
63899;HTU21D;50070;-32.946;-60.652;2022-12-24T00:02:35;24.40;76.15
63899;HTU21D;50070;-32.946;-60.652;2022-12-24T00:05:02;24.48;75.80
63899;HTU21D;50070;-32.946;-60.652;2022-12-24T00:07:29;24.59;75.01
63899;HTU21D;50070;-32.946;-60.652;2022-12-24T00:09:56;24.66;74.59
63899;HTU21D;50070;-32.946;-60.652;2022-12-24T00:12:23;24.71;74.12
63899;HTU21D;50070;-32.946;-60.652;2022-12-24T00:14:50;24.56;74.61
63899;HTU21D;50070;-32.946;-60.652;2022-12-24T00:17:17;24.72;73.90
63899;HTU21D;50070;-32.946;-60.652;2022-12-24T00:19:44;24.69;73.88
63899;HTU21D;50070;-32.946;-60.652;2022-12-24T00:22:10;24.79;71.29
63899;HTU21D;50070;-32.946;-60.652;2022-12-24T00:24:37;24.84;71.00
63899;HTU21D;50070;-32.946;-60.652;2022-12-24T00:27:04;24.70;70.78
63899;HTU21D;50070;-32.946;-60.652;2022-12-24T00:29:33;24.55;70.79
63899;HTU21D;50070;-32.946;-60.652;2022-12-24T00:32:00;24.72;70.41
63899;HTU21D;50070;-32.946;-60.652;2022-12-24T00:34:27;24.77;70.37
63899;HTU21D;50070;-32.946;-60.652;2022-12-24T00:36:53;24.85;69.62
63899;HTU21D;50070;-32.946;-60.652;2022-12-24T00:39:20;24.57;70.16
63899;HTU21D;50070;-32.946;-60.652;2022-12-24T00:41:47;24.69;69.61
63899;HTU21D;50070;-32.946;-60.652;2022-12-24T00:44:14;24.77;69.45
63899;HTU21D;50070;-32.946;-60.652;2022-12-24T00:46:41;24.66;69.26
63899;HTU21D;50070;-32.946;-60.652;2022-12-24T00:49:08;24.75;69.17
63899;HTU21D;50070;-32.946;-60.652;2022-12-24T00:51:36;24.43;69.57
63899;HTU21D;50070;-32.946;-60.652;2022-12-24T00:54:04;24.50;69.39
63899;HTU21D;50070;-32.946;-60.652;2022-12-24T00:56:31;24.53;69.45
63899;HTU21D;50070;-32.946;-60.652;2022-12-24T00:58:58;24.51;69.37
63899;HTU21D;50070;-32.946;-60.652;2022-12-24T01:01:25;24.60;69.13
63899;HTU21D;50070;-32.946;-60.652;2022-12-24T01:03:52;24.46;69.84
63899;HTU21D;50070;-32.946;-60.652;2022-12-24T01:06:39;24.32;70.04
63899;HTU21D;50070;-32.946;-60.652;2022-12-24T01:09:05;24.27;70.26
63899;HTU21D;50070;-32.946;-60.652;2022-12-24T01:11:32;24.42;70.03
63899;HTU21D;50070;-32.946;-60.652;2022-12-24T01:13:59;24.58;69.52
63899;HTU21D;50070;-32.946;-60.652;2022-12-24T01:16:26;24.59;69.38
63899;HTU21D;50070;-32.946;-60.652;2022-12-24T01:18:53;24.55;69.52
63899;HTU21D;50070;-32.946;-60.652;2022-12-24T01:21:19;24.50;69.78
63899;HTU21D;50070;-32.946;-60.652;2022-12-24T01:23:46;24.47;69.94
63899;HTU21D;50070;-32.946;-60.652;2022-12-24T01:26:13;24.64;69.54
63899;HTU21D;50070;-32.946;-60.652;2022-12-24T01:28:40;24.54;69.94
63899;HTU21D;50070;-32.946;-60.652;2022-12-24T01:31:15;24.33;70.84
63899;HTU21D;50070;-32.946;-60.652;2022-12-24T01:33:45;24.43;70.45
63899;HTU21D;50070;-32.946;-60.652;2022-12-24T01:36:13;24.43;70.91
63899;HTU21D;50070;-32.946;-60.652;2022-12-24T01:38:40;24.41;71.02
63899;HTU21D;50070;-32.946;-60.652;2022-12-24T01:41:17;24.38;71.07
63899;HTU21D;50070;-32.946;-60.652;2022-12-24T01:44:28;24.39;70.79
63899;HTU21D;50070;-32.946;-60.652;2022-12-24T01:47:13;24.47;70.79
63899;HTU21D;50070;-32.946;-60.652;2022-12-24T01:49:44;24.32;71.49
63899;HTU21D;50070;-32.946;-60.652;2022-12-24T01:52:20;24.43;71.29
63899;HTU21D;50070;-32.946;-60.652;2022-12-24T01:54:49;24.58;70.90
63899;HTU21D;50070;-32.946;-60.652;2022-12-24T01:57:22;24.44;71.38
63899;HTU21D;50070;-32.946;-60.652;2022-12-24T01:59:54;24.35;71.77
63899;HTU21D;50070;-32.946;-60.652;2022-12-24T02:02:23;24.33;71.67
63899;HTU21D;50070;-32.946;-60.652;2022-12-24T02:05:07;24.28;71.84
63899;HTU21D;50070;-32.946;-60.652;2022-12-24T02:07:35;24.27;72.12
63899;HTU21D;50070;-32.946;-60.652;2022-12-24T02:10:04;24.11;72.67
63899;HTU21D;50070;-32.946;-60.652;2022-12-24T02:12:34;24.19;72.29
63899;HTU21D;50070;-32.946;-60.652;2022-12-24T02:15:05;24.06;72.77
63899;HTU21D;50070;-32.946;-60.652;2022-12-24T02:26:54;24.16;72.54
63899;HTU21D;50070;-32.946;-60.652;2022-12-24T02:32:38;24.18;72.70
63899;HTU21D;50070;-32.946;-60.652;2022-12-24T02:37:57;24.18;72.85
63899;HTU21D;50070;-32.946;-60.652;2022-12-24T02:40:37;24.35;72.25
63899;HTU21D;50070;-32.946;-60.652;2022-12-24T02:43:09;24.26;72.87
63899;HTU21D;50070;-32.946;-60.652;2022-12-24T02:45:39;24.28;72.95
63899;HTU21D;50070;-32.946;-60.652;2022-12-24T02:48:08;24.06;73.92
63899;HTU21D;50070;-32.946;-60.652;2022-12-24T02:50:36;24.05;74.11
63899;HTU21D;50070;-32.946;-60.652;2022-12-24T02:53:02;23.94;74.60
63899;HTU21D;50070;-32.946;-60.652;2022-12-24T03:06:55;23.96;74.53
63899;HTU21D;50070;-32.946;-60.652;2022-12-24T03:09:38;23.57;75.83
63899;HTU21D;50070;-32.946;-60.652;2022-12-24T03:12:20;23.87;74.60
63899;HTU21D;50070;-32.946;-60.652;2022-12-24T03:14:49;23.72;75.34
63899;HTU21D;50070;-32.946;-60.652;2022-12-24T03:17:18;23.41;76.10
63899;HTU21D;50070;-32.946;-60.652;2022-12-24T03:19:46;23.53;76.01
63899;HTU21D;50070;-32.946;-60.652;2022-12-24T03:22:14;23.43;77.61
63899;HTU21D;50070;-32.946;-60.652;2022-12-24T03:24:41;23.34;77.98
63899;HTU21D;50070;-32.946;-60.652;2022-12-24T03:27:08;23.34;77.72
63899;HTU21D;50070;-32.946;-60.652;2022-12-24T03:29:39;23.42;76.87
63899;HTU21D;50070;-32.946;-60.652;2022-12-24T03:32:06;23.52;76.76
63899;HTU21D;50070;-32.946;-60.652;2022-12-24T03:34:33;23.68;76.47
63899;HTU21D;50070;-32.946;-60.652;2022-12-24T03:37:00;23.44;76.57
63899;HTU21D;50070;-32.946;-60.652;2022-12-24T03:39:26;23.40;77.32
63899;HTU21D;50070;-32.946;-60.652;2022-12-24T03:41:53;23.27;77.38
63899;HTU21D;50070;-32.946;-60.652;2022-12-24T03:44:20;23.35;76.78
63899;HTU21D;50070;-32.946;-60.652;2022-12-24T03:46:47;23.37;77.02
63899;HTU21D;50070;-32.946;-60.652;2022-12-24T03:49:14;23.52;76.73
63899;HTU21D;50070;-32.946;-60.652;2022-12-24T03:51:41;23.41;76.85
63899;HTU21D;50070;-32.946;-60.652;2022-12-24T03:54:07;23.51;76.95
63899;HTU21D;50070;-32.946;-60.652;2022-12-24T03:56:34;23.46;77.23
63899;HTU21D;50070;-32.946;-60.652;2022-12-24T03:59:01;23.47;77.33
63899;HTU21D;50070;-32.946;-60.652;2022-12-24T04:01:28;23.64;77.01
63899;HTU21D;50070;-32.946;-60.652;2022-12-24T04:03:55;23.46;77.60
63899;HTU21D;50070;-32.946;-60.652;2022-12-24T04:06:22;23.47;77.21
63899;HTU21D;50070;-32.946;-60.652;2022-12-24T04:08:48;23.37;77.82
63899;HTU21D;50070;-32.946;-60.652;2022-12-24T04:11:16;23.23;78.40
63899;HTU21D;50070;-32.946;-60.652;2022-12-24T04:13:43;23.23;78.70
63899;HTU21D;50070;-32.946;-60.652;2022-12-24T04:16:15;23.29;77.90
63899;HTU21D;50070;-32.946;-60.652;2022-12-24T04:18:45;23.39;77.43
63899;HTU21D;50070;-32.946;-60.652;2022-12-24T04:21:12;23.43;77.08
63899;HTU21D;50070;-32.946;-60.652;2022-12-24T04:23:40;23.34;77.45
63899;HTU21D;50070;-32.946;-60.652;2022-12-24T04:26:08;23.49;76.94
63899;HTU21D;50070;-32.946;-60.652;2022-12-24T04:28:36;23.47;76.87
63899;HTU21D;50070;-32.946;-60.652;2022-12-24T04:31:10;23.27;77.69
63899;HTU21D;50070;-32.946;-60.652;2022-12-24T04:33:37;23.52;76.73
63899;HTU21D;50070;-32.946;-60.652;2022-12-24T04:36:05;23.13;76.76
63899;HTU21D;50070;-32.946;-60.652;2022-12-24T04:38:33;23.11;76.27
63899;HTU21D;50070;-32.946;-60.652;2022-12-24T04:41:12;23.26;76.17
63899;HTU21D;50070;-32.946;-60.652;2022-12-24T04:43:39;22.92;77.38
63899;HTU21D;50070;-32.946;-60.652;2022-12-24T04:46:06;23.10;76.79
63899;HTU21D;50070;-32.946;-60.652;2022-12-24T04:48:33;23.37;75.84
63899;HTU21D;50070;-32.946;-60.652;2022-12-24T04:51:02;23.39;75.51
63899;HTU21D;50070;-32.946;-60.652;2022-12-24T04:53:30;23.26;76.11
63899;HTU21D;50070;-32.946;-60.652;2022-12-24T04:55:57;23.25;75.15
63899;HTU21D;50070;-32.946;-60.652;2022-12-24T04:58:24;23.30;74.30
63899;HTU21D;50070;-32.946;-60.652;2022-12-24T05:00:51;23.18;74.89
63899;HTU21D;50070;-32.946;-60.652;2022-12-24T05:03:18;23.23;73.44
63899;HTU21D;50070;-32.946;-60.652;2022-12-24T05:05:45;23.00;74.61
63899;HTU21D;50070;-32.946;-60.652;2022-12-24T05:08:12;22.70;75.97
63899;HTU21D;50070;-32.946;-60.652;2022-12-24T05:10:39;22.58;76.18
63899;HTU21D;50070;-32.946;-60.652;2022-12-24T05:13:05;22.70;75.76
63899;HTU21D;50070;-32.946;-60.652;2022-12-24T05:15:32;22.69;76.28
63899;HTU21D;50070;-32.946;-60.652;2022-12-24T05:17:58;22.69;75.86
63899;HTU21D;50070;-32.946;-60.652;2022-12-24T05:20:24;22.85;75.09
63899;HTU21D;50070;-32.946;-60.652;2022-12-24T05:22:51;22.54;75.74
63899;HTU21D;50070;-32.946;-60.652;2022-12-24T05:25:38;22.71;75.09
63899;HTU21D;50070;-32.946;-60.652;2022-12-24T05:28:24;22.32;76.55
63899;HTU21D;50070;-32.946;-60.652;2022-12-24T05:30:50;22.40;76.57
63899;HTU21D;50070;-32.946;-60.652;2022-12-24T05:33:17;22.79;74.89
63899;HTU21D;50070;-32.946;-60.652;2022-12-24T05:35:43;22.47;75.85
63899;HTU21D;50070;-32.946;-60.652;2022-12-24T05:38:10;22.41;75.84
63899;HTU21D;50070;-32.946;-60.652;2022-12-24T05:40:37;22.71;74.35
63899;HTU21D;50070;-32.946;-60.652;2022-12-24T05:43:03;22.20;76.21
63899;HTU21D;50070;-32.946;-60.652;2022-12-24T05:45:30;22.04;76.94
63899;HTU21D;50070;-32.946;-60.652;2022-12-24T05:47:57;22.13;76.28
63899;HTU21D;50070;-32.946;-60.652;2022-12-24T05:50:25;22.33;75.74
63899;HTU21D;50070;-32.946;-60.652;2022-12-24T05:52:52;22.56;74.51
63899;HTU21D;50070;-32.946;-60.652;2022-12-24T05:55:19;22.60;74.21
63899;HTU21D;50070;-32.946;-60.652;2022-12-24T05:57:45;22.57;74.43
63899;HTU21D;50070;-32.946;-60.652;2022-12-24T06:00:12;22.50;74.78
63899;HTU21D;50070;-32.946;-60.652;2022-12-24T06:02:39;22.82;73.48
63899;HTU21D;50070;-32.946;-60.652;2022-12-24T06:05:06;22.61;74.18
63899;HTU21D;50070;-32.946;-60.652;2022-12-24T06:07:33;22.78;73.69
63899;HTU21D;50070;-32.946;-60.652;2022-12-24T06:10:00;22.83;73.58
63899;HTU21D;50070;-32.946;-60.652;2022-12-24T06:12:27;22.70;73.93
63899;HTU21D;50070;-32.946;-60.652;2022-12-24T06:14:54;22.66;74.30
63899;HTU21D;50070;-32.946;-60.652;2022-12-24T06:17:20;22.68;74.30
63899;HTU21D;50070;-32.946;-60.652;2022-12-24T06:19:47;22.83;73.82
63899;HTU21D;50070;-32.946;-60.652;2022-12-24T06:22:14;22.47;75.16
63899;HTU21D;50070;-32.946;-60.652;2022-12-24T06:24:41;22.68;74.45
63899;HTU21D;50070;-32.946;-60.652;2022-12-24T06:27:08;22.71;74.03
63899;HTU21D;50070;-32.946;-60.652;2022-12-24T06:29:35;22.53;74.73
63899;HTU21D;50070;-32.946;-60.652;2022-12-24T06:32:02;22.26;75.68
63899;HTU21D;50070;-32.946;-60.652;2022-12-24T06:34:28;22.18;76.19
63899;HTU21D;50070;-32.946;-60.652;2022-12-24T06:36:55;22.31;75.50
63899;HTU21D;50070;-32.946;-60.652;2022-12-24T06:39:22;22.40;75.44
63899;HTU21D;50070;-32.946;-60.652;2022-12-24T06:41:49;22.41;75.11
63899;HTU21D;50070;-32.946;-60.652;2022-12-24T06:44:15;22.20;75.79
63899;HTU21D;50070;-32.946;-60.652;2022-12-24T06:46:42;22.25;75.49
63899;HTU21D;50070;-32.946;-60.652;2022-12-24T06:49:09;22.31;75.31
63899;HTU21D;50070;-32.946;-60.652;2022-12-24T06:51:35;22.42;74.78
63899;HTU21D;50070;-32.946;-60.652;2022-12-24T06:54:02;22.44;74.79
63899;HTU21D;50070;-32.946;-60.652;2022-12-24T06:56:29;22.27;75.19
63899;HTU21D;50070;-32.946;-60.652;2022-12-24T06:58:56;22.33;75.18
63899;HTU21D;50070;-32.946;-60.652;2022-12-24T07:01:23;22.25;75.76
63899;HTU21D;50070;-32.946;-60.652;2022-12-24T07:03:49;22.16;76.09
63899;HTU21D;50070;-32.946;-60.652;2022-12-24T07:06:24;22.40;75.11
63899;HTU21D;50070;-32.946;-60.652;2022-12-24T07:08:51;22.43;75.02
63899;HTU21D;50070;-32.946;-60.652;2022-12-24T07:11:18;22.05;76.45
63899;HTU21D;50070;-32.946;-60.652;2022-12-24T07:13:46;22.07;76.42
63899;HTU21D;50070;-32.946;-60.652;2022-12-24T07:16:12;22.04;76.25
63899;HTU21D;50070;-32.946;-60.652;2022-12-24T07:18:39;22.13;76.11
63899;HTU21D;50070;-32.946;-60.652;2022-12-24T07:21:06;22.18;75.63
63899;HTU21D;50070;-32.946;-60.652;2022-12-24T07:23:33;22.41;74.67
63899;HTU21D;50070;-32.946;-60.652;2022-12-24T07:26:04;22.51;74.18
63899;HTU21D;50070;-32.946;-60.652;2022-12-24T07:28:31;22.57;74.00
63899;HTU21D;50070;-32.946;-60.652;2022-12-24T07:30:58;22.43;74.50
63899;HTU21D;50070;-32.946;-60.652;2022-12-24T07:33:25;22.41;74.66
63899;HTU21D;50070;-32.946;-60.652;2022-12-24T07:36:04;22.40;74.41
63899;HTU21D;50070;-32.946;-60.652;2022-12-24T07:38:31;22.52;74.32
63899;HTU21D;50070;-32.946;-60.652;2022-12-24T07:40:59;22.22;75.43
63899;HTU21D;50070;-32.946;-60.652;2022-12-24T07:43:27;22.41;74.51
63899;HTU21D;50070;-32.946;-60.652;2022-12-24T07:45:55;22.34;74.78
63899;HTU21D;50070;-32.946;-60.652;2022-12-24T07:48:23;22.02;76.30
63899;HTU21D;50070;-32.946;-60.652;2022-12-24T07:50:50;22.35;75.15
63899;HTU21D;50070;-32.946;-60.652;2022-12-24T07:53:17;22.19;75.67
63899;HTU21D;50070;-32.946;-60.652;2022-12-24T07:55:44;22.39;74.72
63899;HTU21D;50070;-32.946;-60.652;2022-12-24T07:58:11;22.29;75.10
63899;HTU21D;50070;-32.946;-60.652;2022-12-24T08:00:38;22.19;75.88
63899;HTU21D;50070;-32.946;-60.652;2022-12-24T08:03:04;22.27;75.28
63899;HTU21D;50070;-32.946;-60.652;2022-12-24T08:05:35;22.40;74.60
63899;HTU21D;50070;-32.946;-60.652;2022-12-24T08:08:02;22.38;74.67
63899;HTU21D;50070;-32.946;-60.652;2022-12-24T08:10:29;22.37;74.57
63899;HTU21D;50070;-32.946;-60.652;2022-12-24T08:12:56;22.26;74.92
63899;HTU21D;50070;-32.946;-60.652;2022-12-24T08:15:22;22.12;75.81
63899;HTU21D;50070;-32.946;-60.652;2022-12-24T08:17:49;22.17;75.47
63899;HTU21D;50070;-32.946;-60.652;2022-12-24T08:20:15;22.39;74.41
63899;HTU21D;50070;-32.946;-60.652;2022-12-24T08:22:42;22.23;74.90
63899;HTU21D;50070;-32.946;-60.652;2022-12-24T08:25:09;22.37;74.32
63899;HTU21D;50070;-32.946;-60.652;2022-12-24T08:27:36;22.17;75.25
63899;HTU21D;50070;-32.946;-60.652;2022-12-24T08:30:04;22.27;74.90
63899;HTU21D;50070;-32.946;-60.652;2022-12-24T08:32:30;22.28;74.64
63899;HTU21D;50070;-32.946;-60.652;2022-12-24T08:34:57;22.26;74.80
63899;HTU21D;50070;-32.946;-60.652;2022-12-24T08:37:24;22.43;74.29
63899;HTU21D;50070;-32.946;-60.652;2022-12-24T08:39:51;22.36;74.55
63899;HTU21D;50070;-32.946;-60.652;2022-12-24T08:42:17;22.35;74.14
63899;HTU21D;50070;-32.946;-60.652;2022-12-24T08:44:44;22.37;74.40
63899;HTU21D;50070;-32.946;-60.652;2022-12-24T08:47:11;22.44;73.87
63899;HTU21D;50070;-32.946;-60.652;2022-12-24T08:49:37;22.10;75.31
63899;HTU21D;50070;-32.946;-60.652;2022-12-24T08:52:05;22.05;75.83
63899;HTU21D;50070;-32.946;-60.652;2022-12-24T08:54:32;21.80;76.88
63899;HTU21D;50070;-32.946;-60.652;2022-12-24T08:56:59;21.78;77.21
63899;HTU21D;50070;-32.946;-60.652;2022-12-24T08:59:25;21.74;77.29
63899;HTU21D;50070;-32.946;-60.652;2022-12-24T09:01:52;21.89;76.54
63899;HTU21D;50070;-32.946;-60.652;2022-12-24T09:04:19;21.91;76.50
63899;HTU21D;50070;-32.946;-60.652;2022-12-24T09:06:46;21.90;76.76
63899;HTU21D;50070;-32.946;-60.652;2022-12-24T09:09:12;21.93;76.53
63899;HTU21D;50070;-32.946;-60.652;2022-12-24T09:11:39;21.98;76.39
63899;HTU21D;50070;-32.946;-60.652;2022-12-24T09:14:06;21.82;77.10
63899;HTU21D;50070;-32.946;-60.652;2022-12-24T09:16:33;21.85;77.02
63899;HTU21D;50070;-32.946;-60.652;2022-12-24T09:18:59;21.78;77.44
63899;HTU21D;50070;-32.946;-60.652;2022-12-24T09:21:26;21.82;77.39
63899;HTU21D;50070;-32.946;-60.652;2022-12-24T09:23:53;21.91;77.09
63899;HTU21D;50070;-32.946;-60.652;2022-12-24T09:26:24;21.82;77.60
63899;HTU21D;50070;-32.946;-60.652;2022-12-24T09:28:52;21.70;78.18
63899;HTU21D;50070;-32.946;-60.652;2022-12-24T09:31:19;21.83;77.79
63899;HTU21D;50070;-32.946;-60.652;2022-12-24T09:33:48;21.79;78.18
63899;HTU21D;50070;-32.946;-60.652;2022-12-24T09:36:15;21.82;78.04
63899;HTU21D;50070;-32.946;-60.652;2022-12-24T09:38:42;21.65;78.90
63899;HTU21D;50070;-32.946;-60.652;2022-12-24T09:46:49;21.89;78.54
63899;HTU21D;50070;-32.946;-60.652;2022-12-24T09:49:21;21.93;78.50
63899;HTU21D;50070;-32.946;-60.652;2022-12-24T09:52:09;21.93;77.91
63899;HTU21D;50070;-32.946;-60.652;2022-12-24T09:54:49;22.11;77.09
63899;HTU21D;50070;-32.946;-60.652;2022-12-24T09:57:29;21.77;78.43
63899;HTU21D;50070;-32.946;-60.652;2022-12-24T09:59:57;21.61;79.09
63899;HTU21D;50070;-32.946;-60.652;2022-12-24T10:02:24;21.60;78.59
63899;HTU21D;50070;-32.946;-60.652;2022-12-24T10:04:51;21.64;78.59
63899;HTU21D;50070;-32.946;-60.652;2022-12-24T10:07:22;21.96;77.22
63899;HTU21D;50070;-32.946;-60.652;2022-12-24T10:15:29;21.63;77.84
63899;HTU21D;50070;-32.946;-60.652;2022-12-24T10:24:09;21.82;76.49
63899;HTU21D;50070;-32.946;-60.652;2022-12-24T10:26:54;21.80;76.64
63899;HTU21D;50070;-32.946;-60.652;2022-12-24T10:29:43;21.84;76.31
63899;HTU21D;50070;-32.946;-60.652;2022-12-24T10:34:44;22.21;74.70
63899;HTU21D;50070;-32.946;-60.652;2022-12-24T10:37:18;22.12;74.92
63899;HTU21D;50070;-32.946;-60.652;2022-12-24T10:39:45;22.06;75.68
63899;HTU21D;50070;-32.946;-60.652;2022-12-24T10:42:12;22.19;75.21
63899;HTU21D;50070;-32.946;-60.652;2022-12-24T10:44:40;21.81;76.29
63899;HTU21D;50070;-32.946;-60.652;2022-12-24T10:47:08;21.79;76.59
63899;HTU21D;50070;-32.946;-60.652;2022-12-24T10:52:18;21.59;76.96
63899;HTU21D;50070;-32.946;-60.652;2022-12-24T10:55:06;21.94;75.21
63899;HTU21D;50070;-32.946;-60.652;2022-12-24T10:57:34;21.94;75.21
63899;HTU21D;50070;-32.946;-60.652;2022-12-24T11:00:02;21.95;75.39
63899;HTU21D;50070;-32.946;-60.652;2022-12-24T11:02:36;22.21;73.58
63899;HTU21D;50070;-32.946;-60.652;2022-12-24T11:05:27;21.95;74.46
63899;HTU21D;50070;-32.946;-60.652;2022-12-24T11:08:03;22.29;73.15
63899;HTU21D;50070;-32.946;-60.652;2022-12-24T11:10:34;22.24;73.32
63899;HTU21D;50070;-32.946;-60.652;2022-12-24T11:13:02;22.37;72.61
63899;HTU21D;50070;-32.946;-60.652;2022-12-24T11:15:31;22.29;73.17
63899;HTU21D;50070;-32.946;-60.652;2022-12-24T11:18:05;22.21;73.35
63899;HTU21D;50070;-32.946;-60.652;2022-12-24T11:20:39;22.35;72.92
63899;HTU21D;50070;-32.946;-60.652;2022-12-24T11:23:08;22.32;73.03
63899;HTU21D;50070;-32.946;-60.652;2022-12-24T11:25:47;22.22;73.43
63899;HTU21D;50070;-32.946;-60.652;2022-12-24T11:28:22;22.21;74.04
63899;HTU21D;50070;-32.946;-60.652;2022-12-24T11:31:17;22.19;73.50
63899;HTU21D;50070;-32.946;-60.652;2022-12-24T11:33:51;22.18;74.02
63899;HTU21D;50070;-32.946;-60.652;2022-12-24T11:36:22;22.18;73.31
63899;HTU21D;50070;-32.946;-60.652;2022-12-24T11:38:56;22.22;72.88
63899;HTU21D;50070;-32.946;-60.652;2022-12-24T11:41:25;22.14;73.23
63899;HTU21D;50070;-32.946;-60.652;2022-12-24T11:44:00;22.10;73.05
63899;HTU21D;50070;-32.946;-60.652;2022-12-24T11:46:39;21.79;74.17
63899;HTU21D;50070;-32.946;-60.652;2022-12-24T11:49:30;21.78;74.10
63899;HTU21D;50070;-32.946;-60.652;2022-12-24T11:54:55;22.35;72.08
63899;HTU21D;50070;-32.946;-60.652;2022-12-24T11:57:32;22.06;72.62
63899;HTU21D;50070;-32.946;-60.652;2022-12-24T12:00:01;21.96;72.65
63899;HTU21D;50070;-32.946;-60.652;2022-12-24T12:02:33;21.75;72.69
63899;HTU21D;50070;-32.946;-60.652;2022-12-24T12:05:16;21.29;74.32
63899;HTU21D;50070;-32.946;-60.652;2022-12-24T12:07:46;21.60;73.05
63899;HTU21D;50070;-32.946;-60.652;2022-12-24T12:13:04;21.48;73.44
63899;HTU21D;50070;-32.946;-60.652;2022-12-24T12:15:41;21.64;73.12
63899;HTU21D;50070;-32.946;-60.652;2022-12-24T12:18:15;21.68;72.47
63899;HTU21D;50070;-32.946;-60.652;2022-12-24T12:23:29;21.64;72.17
63899;HTU21D;50070;-32.946;-60.652;2022-12-24T12:26:00;21.43;73.33
63899;HTU21D;50070;-32.946;-60.652;2022-12-24T12:33:51;21.43;73.23
63899;HTU21D;50070;-32.946;-60.652;2022-12-24T12:36:30;21.38;73.05
63899;HTU21D;50070;-32.946;-60.652;2022-12-24T12:38:58;21.34;73.12
63899;HTU21D;50070;-32.946;-60.652;2022-12-24T12:46:51;21.29;73.14
63899;HTU21D;50070;-32.946;-60.652;2022-12-24T12:49:50;21.87;71.39
63899;HTU21D;50070;-32.946;-60.652;2022-12-24T13:06:57;22.33;68.58
63899;HTU21D;50070;-32.946;-60.652;2022-12-24T13:09:45;21.88;70.56
63899;HTU21D;50070;-32.946;-60.652;2022-12-24T13:21:02;21.70;71.58
63899;HTU21D;50070;-32.946;-60.652;2022-12-24T13:23:30;21.87;70.81
63899;HTU21D;50070;-32.946;-60.652;2022-12-24T13:25:58;21.59;71.40
63899;HTU21D;50070;-32.946;-60.652;2022-12-24T13:33:54;22.23;69.09
63899;HTU21D;50070;-32.946;-60.652;2022-12-24T13:36:22;22.28;68.54
63899;HTU21D;50070;-32.946;-60.652;2022-12-24T13:38:56;22.35;68.52
63899;HTU21D;50070;-32.946;-60.652;2022-12-24T13:49:40;22.31;66.29
63899;HTU21D;50070;-32.946;-60.652;2022-12-24T13:54:44;22.98;64.62
63899;HTU21D;50070;-32.946;-60.652;2022-12-24T14:03:06;22.67;65.12
63899;HTU21D;50070;-32.946;-60.652;2022-12-24T14:08:11;22.11;65.46
63899;HTU21D;50070;-32.946;-60.652;2022-12-24T14:10:44;22.27;65.18
63899;HTU21D;50070;-32.946;-60.652;2022-12-24T14:16:24;22.50;64.73
63899;HTU21D;50070;-32.946;-60.652;2022-12-24T14:19:22;22.61;63.98
63899;HTU21D;50070;-32.946;-60.652;2022-12-24T14:21:55;22.28;64.05
63899;HTU21D;50070;-32.946;-60.652;2022-12-24T14:24:26;22.31;63.66
63899;HTU21D;50070;-32.946;-60.652;2022-12-24T14:26:59;22.13;64.35
63899;HTU21D;50070;-32.946;-60.652;2022-12-24T14:29:33;22.28;63.92
63899;HTU21D;50070;-32.946;-60.652;2022-12-24T14:32:13;22.28;63.60
63899;HTU21D;50070;-32.946;-60.652;2022-12-24T14:34:40;22.71;62.14
63899;HTU21D;50070;-32.946;-60.652;2022-12-24T14:37:09;22.65;62.06
63899;HTU21D;50070;-32.946;-60.652;2022-12-24T14:39:40;23.02;61.11
63899;HTU21D;50070;-32.946;-60.652;2022-12-24T14:48:22;23.45;59.11
63899;HTU21D;50070;-32.946;-60.652;2022-12-24T14:56:18;24.16;55.45
63899;HTU21D;50070;-32.946;-60.652;2022-12-24T14:58:46;24.62;54.15
63899;HTU21D;50070;-32.946;-60.652;2022-12-24T15:01:30;24.31;54.47
63899;HTU21D;50070;-32.946;-60.652;2022-12-24T15:09:05;24.91;52.61
63899;HTU21D;50070;-32.946;-60.652;2022-12-24T15:11:32;25.04;53.04
63899;HTU21D;50070;-32.946;-60.652;2022-12-24T15:13:59;24.86;53.72
63899;HTU21D;50070;-32.946;-60.652;2022-12-24T15:16:33;24.88;53.62
63899;HTU21D;50070;-32.946;-60.652;2022-12-24T15:19:17;25.00;52.68
63899;HTU21D;50070;-32.946;-60.652;2022-12-24T15:21:46;25.04;52.64
63899;HTU21D;50070;-32.946;-60.652;2022-12-24T15:24:30;24.90;52.20
63899;HTU21D;50070;-32.946;-60.652;2022-12-24T15:27:02;24.56;53.80
63899;HTU21D;50070;-32.946;-60.652;2022-12-24T15:29:37;25.30;52.11
63899;HTU21D;50070;-32.946;-60.652;2022-12-24T15:32:04;25.18;52.19
63899;HTU21D;50070;-32.946;-60.652;2022-12-24T15:34:43;25.40;50.88
63899;HTU21D;50070;-32.946;-60.652;2022-12-24T15:39:38;25.60;50.43
63899;HTU21D;50070;-32.946;-60.652;2022-12-24T15:42:07;25.37;50.49
63899;HTU21D;50070;-32.946;-60.652;2022-12-24T15:44:46;25.22;51.16
63899;HTU21D;50070;-32.946;-60.652;2022-12-24T15:47:20;25.64;49.24
63899;HTU21D;50070;-32.946;-60.652;2022-12-24T15:49:51;25.73;49.06
63899;HTU21D;50070;-32.946;-60.652;2022-12-24T15:52:20;25.82;49.31
63899;HTU21D;50070;-32.946;-60.652;2022-12-24T15:54:50;25.97;49.34
63899;HTU21D;50070;-32.946;-60.652;2022-12-24T15:57:32;25.78;50.14
63899;HTU21D;50070;-32.946;-60.652;2022-12-24T16:00:02;25.69;50.35
63899;HTU21D;50070;-32.946;-60.652;2022-12-24T16:02:43;25.75;49.83
63899;HTU21D;50070;-32.946;-60.652;2022-12-24T16:10:40;26.63;47.55
63899;HTU21D;50070;-32.946;-60.652;2022-12-24T16:13:17;26.81;46.42
63899;HTU21D;50070;-32.946;-60.652;2022-12-24T16:15:56;26.79;46.55
63899;HTU21D;50070;-32.946;-60.652;2022-12-24T16:18:31;27.36;45.48
63899;HTU21D;50070;-32.946;-60.652;2022-12-24T16:20:59;27.89;43.64
63899;HTU21D;50070;-32.946;-60.652;2022-12-24T16:23:37;26.69;44.99
63899;HTU21D;50070;-32.946;-60.652;2022-12-24T16:26:04;26.97;46.15
63899;HTU21D;50070;-32.946;-60.652;2022-12-24T16:28:31;26.89;46.09
63899;HTU21D;50070;-32.946;-60.652;2022-12-24T16:30:58;27.24;45.70
63899;HTU21D;50070;-32.946;-60.652;2022-12-24T16:33:25;27.30;44.69
63899;HTU21D;50070;-32.946;-60.652;2022-12-24T16:35:52;27.01;44.93
63899;HTU21D;50070;-32.946;-60.652;2022-12-24T16:38:19;26.53;45.68
63899;HTU21D;50070;-32.946;-60.652;2022-12-24T16:40:46;26.63;44.97
63899;HTU21D;50070;-32.946;-60.652;2022-12-24T16:43:13;26.81;44.26
63899;HTU21D;50070;-32.946;-60.652;2022-12-24T16:46:03;26.95;44.42
63899;HTU21D;50070;-32.946;-60.652;2022-12-24T16:48:31;26.77;44.19
63899;HTU21D;50070;-32.946;-60.652;2022-12-24T16:51:01;26.85;44.10
63899;HTU21D;50070;-32.946;-60.652;2022-12-24T16:53:28;26.81;43.58
63899;HTU21D;50070;-32.946;-60.652;2022-12-24T16:55:55;26.75;42.90
63899;HTU21D;50070;-32.946;-60.652;2022-12-24T16:58:22;26.83;41.95
63899;HTU21D;50070;-32.946;-60.652;2022-12-24T17:00:49;26.69;41.88
63899;HTU21D;50070;-32.946;-60.652;2022-12-24T17:03:15;27.01;41.60
63899;HTU21D;50070;-32.946;-60.652;2022-12-24T17:05:43;26.84;42.16
63899;HTU21D;50070;-32.946;-60.652;2022-12-24T17:08:10;26.63;42.93
63899;HTU21D;50070;-32.946;-60.652;2022-12-24T17:10:37;26.93;42.48
63899;HTU21D;50070;-32.946;-60.652;2022-12-24T17:13:04;27.15;42.24
63899;HTU21D;50070;-32.946;-60.652;2022-12-24T17:15:31;27.07;42.13